sensor_id;sensor_type;location;lat;lon;timestamp;pressure;altitude;pressure_sealevel;temperature;humidity
78839;BME280;68405;47.190;27.558;2023-03-31T00:00:50;99390.02;;;4.19;30.40
78839;BME280;68405;47.190;27.558;2023-03-31T00:03:22;99389.30;;;4.22;30.30
78839;BME280;68405;47.190;27.558;2023-03-31T00:05:58;99383.27;;;4.23;30.29
78839;BME280;68405;47.190;27.558;2023-03-31T00:08:30;99370.20;;;4.23;30.58
78839;BME280;68405;47.190;27.558;2023-03-31T00:11:06;99370.01;;;4.24;30.53
78839;BME280;68405;47.190;27.558;2023-03-31T00:13:38;99364.15;;;4.25;30.40
78839;BME280;68405;47.190;27.558;2023-03-31T00:16:11;99362.26;;;4.25;30.70
78839;BME280;68405;47.190;27.558;2023-03-31T00:18:42;99365.67;;;4.27;30.67
78839;BME280;68405;47.190;27.558;2023-03-31T00:21:17;99359.41;;;4.31;30.80
78839;BME280;68405;47.190;27.558;2023-03-31T00:24:00;99360.64;;;4.40;30.67
78839;BME280;68405;47.190;27.558;2023-03-31T00:26:33;99362.91;;;4.46;30.85
78839;BME280;68405;47.190;27.558;2023-03-31T00:29:06;99363.50;;;4.52;30.50
78839;BME280;68405;47.190;27.558;2023-03-31T00:31:38;99363.08;;;4.56;30.75
78839;BME280;68405;47.190;27.558;2023-03-31T00:34:10;99358.05;;;4.59;30.63
78839;BME280;68405;47.190;27.558;2023-03-31T00:36:41;99350.42;;;4.62;30.62
78839;BME280;68405;47.190;27.558;2023-03-31T00:39:17;99346.74;;;4.66;30.76
78839;BME280;68405;47.190;27.558;2023-03-31T00:41:50;99339.61;;;4.70;30.69
78839;BME280;68405;47.190;27.558;2023-03-31T00:44:23;99337.30;;;4.74;30.68
78839;BME280;68405;47.190;27.558;2023-03-31T00:46:57;99339.80;;;4.77;31.09
78839;BME280;68405;47.190;27.558;2023-03-31T00:49:34;99341.13;;;4.80;30.74
78839;BME280;68405;47.190;27.558;2023-03-31T00:52:12;99336.25;;;4.83;31.05
78839;BME280;68405;47.190;27.558;2023-03-31T00:54:49;99336.71;;;4.86;31.14
78839;BME280;68405;47.190;27.558;2023-03-31T00:57:25;99329.26;;;4.89;30.99
78839;BME280;68405;47.190;27.558;2023-03-31T01:00:03;99325.92;;;4.92;31.11
78839;BME280;68405;47.190;27.558;2023-03-31T01:02:37;99323.08;;;4.96;30.87
78839;BME280;68405;47.190;27.558;2023-03-31T01:05:10;99316.15;;;4.99;31.13
78839;BME280;68405;47.190;27.558;2023-03-31T01:07:44;99314.02;;;5.01;31.27
78839;BME280;68405;47.190;27.558;2023-03-31T01:10:19;99307.79;;;5.04;31.61
78839;BME280;68405;47.190;27.558;2023-03-31T01:12:53;99299.15;;;5.05;31.32
78839;BME280;68405;47.190;27.558;2023-03-31T01:15:26;99299.10;;;5.07;31.71
78839;BME280;68405;47.190;27.558;2023-03-31T01:17:57;99294.94;;;5.09;31.38
78839;BME280;68405;47.190;27.558;2023-03-31T01:20:36;99289.70;;;5.13;31.51
78839;BME280;68405;47.190;27.558;2023-03-31T01:23:33;99288.95;;;5.14;31.62
78839;BME280;68405;47.190;27.558;2023-03-31T01:26:38;99283.23;;;5.16;31.40
78839;BME280;68405;47.190;27.558;2023-03-31T01:29:27;99282.81;;;5.20;31.26
78839;BME280;68405;47.190;27.558;2023-03-31T01:35:41;99276.51;;;5.25;31.48
78839;BME280;68405;47.190;27.558;2023-03-31T01:38:46;99271.30;;;5.27;31.69
78839;BME280;68405;47.190;27.558;2023-03-31T01:41:33;99262.16;;;5.28;32.09
78839;BME280;68405;47.190;27.558;2023-03-31T01:44:15;99259.42;;;5.27;32.14
78839;BME280;68405;47.190;27.558;2023-03-31T01:46:55;99257.02;;;5.27;32.05
78839;BME280;68405;47.190;27.558;2023-03-31T01:49:33;99254.61;;;5.27;31.91
78839;BME280;68405;47.190;27.558;2023-03-31T01:52:16;99251.40;;;5.24;32.03
78839;BME280;68405;47.190;27.558;2023-03-31T01:54:53;99249.27;;;5.19;32.23
78839;BME280;68405;47.190;27.558;2023-03-31T01:57:32;99244.92;;;5.13;32.20
78839;BME280;68405;47.190;27.558;2023-03-31T02:00:08;99239.33;;;5.09;31.83
78839;BME280;68405;47.190;27.558;2023-03-31T02:02:46;99240.83;;;5.04;32.27
78839;BME280;68405;47.190;27.558;2023-03-31T02:05:22;99233.02;;;4.98;32.00
78839;BME280;68405;47.190;27.558;2023-03-31T02:07:56;99232.42;;;4.95;32.39
78839;BME280;68405;47.190;27.558;2023-03-31T02:10:32;99226.69;;;4.90;32.31
78839;BME280;68405;47.190;27.558;2023-03-31T02:13:07;99227.47;;;4.85;32.60
78839;BME280;68405;47.190;27.558;2023-03-31T02:15:42;99222.50;;;4.84;32.44
78839;BME280;68405;47.190;27.558;2023-03-31T02:18:20;99220.98;;;4.83;32.81
78839;BME280;68405;47.190;27.558;2023-03-31T02:20:56;99220.47;;;4.83;32.91
78839;BME280;68405;47.190;27.558;2023-03-31T02:23:30;99217.73;;;4.82;32.93
78839;BME280;68405;47.190;27.558;2023-03-31T02:26:06;99216.35;;;4.82;32.82
78839;BME280;68405;47.190;27.558;2023-03-31T02:28:40;99212.07;;;4.81;33.20
78839;BME280;68405;47.190;27.558;2023-03-31T02:31:22;99208.15;;;4.80;33.42
78839;BME280;68405;47.190;27.558;2023-03-31T02:33:57;99206.42;;;4.80;32.95
78839;BME280;68405;47.190;27.558;2023-03-31T02:36:29;99204.00;;;4.81;33.31
78839;BME280;68405;47.190;27.558;2023-03-31T02:39:04;99199.89;;;4.80;33.09
78839;BME280;68405;47.190;27.558;2023-03-31T02:41:38;99199.43;;;4.77;33.32
78839;BME280;68405;47.190;27.558;2023-03-31T02:44:10;99199.63;;;4.76;33.46
78839;BME280;68405;47.190;27.558;2023-03-31T02:46:42;99196.21;;;4.67;33.75
78839;BME280;68405;47.190;27.558;2023-03-31T02:49:15;99183.91;;;4.55;34.46
78839;BME280;68405;47.190;27.558;2023-03-31T02:52:07;99175.73;;;4.44;34.77
78839;BME280;68405;47.190;27.558;2023-03-31T02:58:04;99176.12;;;4.24;34.28
78839;BME280;68405;47.190;27.558;2023-03-31T03:00:59;99178.23;;;4.22;34.42
78839;BME280;68405;47.190;27.558;2023-03-31T03:03:43;99183.91;;;4.21;34.64
78839;BME280;68405;47.190;27.558;2023-03-31T03:06:35;99177.13;;;4.26;34.38
78839;BME280;68405;47.190;27.558;2023-03-31T03:09:19;99169.86;;;4.28;35.02
78839;BME280;68405;47.190;27.558;2023-03-31T03:12:02;99167.67;;;4.26;34.86
78839;BME280;68405;47.190;27.558;2023-03-31T03:14:43;99158.38;;;4.26;34.78
78839;BME280;68405;47.190;27.558;2023-03-31T03:17:20;99151.52;;;4.25;34.79
78839;BME280;68405;47.190;27.558;2023-03-31T03:19:57;99154.96;;;4.25;35.06
78839;BME280;68405;47.190;27.558;2023-03-31T03:22:30;99152.23;;;4.24;35.54
78839;BME280;68405;47.190;27.558;2023-03-31T03:25:03;99149.83;;;4.24;35.46
78839;BME280;68405;47.190;27.558;2023-03-31T03:27:35;99146.77;;;4.22;35.24
78839;BME280;68405;47.190;27.558;2023-03-31T03:30:10;99147.72;;;4.18;35.59
78839;BME280;68405;47.190;27.558;2023-03-31T03:32:42;99145.33;;;4.17;35.13
78839;BME280;68405;47.190;27.558;2023-03-31T03:35:14;99143.92;;;4.18;34.84
78839;BME280;68405;47.190;27.558;2023-03-31T03:37:46;99139.09;;;4.19;35.27
78839;BME280;68405;47.190;27.558;2023-03-31T03:40:18;99130.30;;;4.20;35.47
78839;BME280;68405;47.190;27.558;2023-03-31T03:42:50;99135.92;;;4.23;35.49
78839;BME280;68405;47.190;27.558;2023-03-31T03:45:22;99133.97;;;4.26;35.40
78839;BME280;68405;47.190;27.558;2023-03-31T03:47:53;99131.36;;;4.27;35.74
78839;BME280;68405;47.190;27.558;2023-03-31T03:50:26;99127.58;;;4.27;35.76
78839;BME280;68405;47.190;27.558;2023-03-31T03:52:57;99115.75;;;4.26;35.97
78839;BME280;68405;47.190;27.558;2023-03-31T03:55:29;99113.34;;;4.27;36.31
78839;BME280;68405;47.190;27.558;2023-03-31T03:58:01;99117.66;;;4.26;36.25
78839;BME280;68405;47.190;27.558;2023-03-31T04:00:32;99121.09;;;4.25;35.89
78839;BME280;68405;47.190;27.558;2023-03-31T04:03:04;99120.86;;;4.28;36.09
78839;BME280;68405;47.190;27.558;2023-03-31T04:05:36;99114.63;;;4.30;36.03
78839;BME280;68405;47.190;27.558;2023-03-31T04:08:08;99111.89;;;4.30;36.36
78839;BME280;68405;47.190;27.558;2023-03-31T04:10:45;99104.98;;;4.32;36.21
78839;BME280;68405;47.190;27.558;2023-03-31T04:13:18;99104.34;;;4.37;36.32
78839;BME280;68405;47.190;27.558;2023-03-31T04:15:51;99101.02;;;4.47;35.96
78839;BME280;68405;47.190;27.558;2023-03-31T04:18:22;99096.45;;;4.52;36.18
78839;BME280;68405;47.190;27.558;2023-03-31T04:20:54;99095.30;;;4.57;36.29
78839;BME280;68405;47.190;27.558;2023-03-31T04:23:35;99088.13;;;4.62;36.14
78839;BME280;68405;47.190;27.558;2023-03-31T04:26:08;99085.73;;;4.69;35.98
78839;BME280;68405;47.190;27.558;2023-03-31T04:28:40;99083.46;;;4.78;35.77
78839;BME280;68405;47.190;27.558;2023-03-31T04:31:16;99082.42;;;4.85;35.43
78839;BME280;68405;47.190;27.558;2023-03-31T04:33:55;99080.33;;;4.94;35.57
78839;BME280;68405;47.190;27.558;2023-03-31T04:36:31;99078.02;;;5.04;35.42
78839;BME280;68405;47.190;27.558;2023-03-31T04:39:04;99073.83;;;5.13;35.10
78839;BME280;68405;47.190;27.558;2023-03-31T04:41:40;99074.42;;;5.24;35.46
78839;BME280;68405;47.190;27.558;2023-03-31T04:44:12;99072.11;;;5.33;35.84
78839;BME280;68405;47.190;27.558;2023-03-31T04:46:44;99073.82;;;5.41;35.87
78839;BME280;68405;47.190;27.558;2023-03-31T04:49:16;99073.52;;;5.45;35.71
78839;BME280;68405;47.190;27.558;2023-03-31T04:51:47;99070.10;;;5.51;35.88
78839;BME280;68405;47.190;27.558;2023-03-31T04:54:19;99068.96;;;5.48;35.77
78839;BME280;68405;47.190;27.558;2023-03-31T04:56:51;99070.73;;;5.46;35.66
78839;BME280;68405;47.190;27.558;2023-03-31T04:59:23;99071.65;;;5.44;35.48
78839;BME280;68405;47.190;27.558;2023-03-31T05:01:54;99066.85;;;5.43;35.77
78839;BME280;68405;47.190;27.558;2023-03-31T05:04:26;99067.80;;;5.40;35.68
78839;BME280;68405;47.190;27.558;2023-03-31T05:06:58;99068.86;;;5.39;36.19
78839;BME280;68405;47.190;27.558;2023-03-31T05:09:29;99062.48;;;5.32;35.82
78839;BME280;68405;47.190;27.558;2023-03-31T05:12:01;99063.79;;;5.29;36.14
78839;BME280;68405;47.190;27.558;2023-03-31T05:14:33;99065.64;;;5.30;36.24
78839;BME280;68405;47.190;27.558;2023-03-31T05:17:05;99068.34;;;5.39;36.09
78839;BME280;68405;47.190;27.558;2023-03-31T05:19:37;99064.36;;;5.46;36.60
78839;BME280;68405;47.190;27.558;2023-03-31T05:22:08;99056.41;;;5.54;36.72
78839;BME280;68405;47.190;27.558;2023-03-31T05:24:40;99053.09;;;5.62;36.55
78839;BME280;68405;47.190;27.558;2023-03-31T05:27:12;99052.14;;;5.72;36.51
78839;BME280;68405;47.190;27.558;2023-03-31T05:29:44;99047.61;;;5.73;36.68
78839;BME280;68405;47.190;27.558;2023-03-31T05:32:16;99039.35;;;5.73;36.84
78839;BME280;68405;47.190;27.558;2023-03-31T05:34:48;99044.88;;;5.72;36.95
78839;BME280;68405;47.190;27.558;2023-03-31T05:37:22;99042.18;;;5.76;37.01
78839;BME280;68405;47.190;27.558;2023-03-31T05:39:55;99039.16;;;5.86;36.91
78839;BME280;68405;47.190;27.558;2023-03-31T05:42:26;99034.27;;;6.06;36.66
78839;BME280;68405;47.190;27.558;2023-03-31T05:44:58;99036.69;;;6.30;36.74
78839;BME280;68405;47.190;27.558;2023-03-31T05:47:30;99033.86;;;6.54;36.67
78839;BME280;68405;47.190;27.558;2023-03-31T05:50:02;99032.77;;;6.83;36.53
78839;BME280;68405;47.190;27.558;2023-03-31T05:52:37;99033.27;;;7.04;36.23
78839;BME280;68405;47.190;27.558;2023-03-31T05:55:10;99031.08;;;7.38;36.37
78839;BME280;68405;47.190;27.558;2023-03-31T05:57:42;99025.89;;;7.72;35.66
78839;BME280;68405;47.190;27.558;2023-03-31T06:00:16;99021.68;;;7.88;35.73
78839;BME280;68405;47.190;27.558;2023-03-31T06:02:47;99017.74;;;8.23;35.48
78839;BME280;68405;47.190;27.558;2023-03-31T06:05:20;99015.40;;;8.57;34.94
78839;BME280;68405;47.190;27.558;2023-03-31T06:07:55;99011.75;;;8.87;34.78
78839;BME280;68405;47.190;27.558;2023-03-31T06:10:27;99009.70;;;9.08;34.75
78839;BME280;68405;47.190;27.558;2023-03-31T06:12:59;99013.92;;;9.15;34.57
78839;BME280;68405;47.190;27.558;2023-03-31T06:15:31;99008.41;;;8.85;34.57
78839;BME280;68405;47.190;27.558;2023-03-31T06:18:03;99008.36;;;8.60;35.10
78839;BME280;68405;47.190;27.558;2023-03-31T06:20:36;99004.66;;;8.35;35.18
78839;BME280;68405;47.190;27.558;2023-03-31T06:23:08;99009.83;;;8.32;35.30
78839;BME280;68405;47.190;27.558;2023-03-31T06:25:40;99011.95;;;8.34;35.42
78839;BME280;68405;47.190;27.558;2023-03-31T06:28:12;99013.66;;;8.35;35.68
78839;BME280;68405;47.190;27.558;2023-03-31T06:30:44;99013.58;;;8.29;35.47
78839;BME280;68405;47.190;27.558;2023-03-31T06:33:15;99015.21;;;8.35;35.63
78839;BME280;68405;47.190;27.558;2023-03-31T06:35:47;99015.20;;;8.35;35.55
78839;BME280;68405;47.190;27.558;2023-03-31T06:38:19;99012.75;;;8.32;35.50
78839;BME280;68405;47.190;27.558;2023-03-31T06:40:51;99013.84;;;8.44;35.69
78839;BME280;68405;47.190;27.558;2023-03-31T06:43:22;99012.88;;;8.60;35.74
78839;BME280;68405;47.190;27.558;2023-03-31T06:45:55;99015.73;;;8.54;35.67
78839;BME280;68405;47.190;27.558;2023-03-31T06:48:27;99010.42;;;8.34;35.70
78839;BME280;68405;47.190;27.558;2023-03-31T06:51:02;99008.39;;;8.41;35.58
78839;BME280;68405;47.190;27.558;2023-03-31T06:53:35;99009.35;;;8.62;35.92
78839;BME280;68405;47.190;27.558;2023-03-31T06:56:08;99012.30;;;8.74;35.95
78839;BME280;68405;47.190;27.558;2023-03-31T06:58:40;99012.70;;;8.90;35.72
78839;BME280;68405;47.190;27.558;2023-03-31T07:01:12;99014.77;;;9.19;35.74
78839;BME280;68405;47.190;27.558;2023-03-31T07:03:44;99016.85;;;9.27;35.45
78839;BME280;68405;47.190;27.558;2023-03-31T07:06:16;99012.75;;;9.14;35.13
78839;BME280;68405;47.190;27.558;2023-03-31T07:08:48;99016.73;;;9.13;35.26
78839;BME280;68405;47.190;27.558;2023-03-31T07:11:20;99012.52;;;9.35;35.28
78839;BME280;68405;47.190;27.558;2023-03-31T07:13:52;99011.48;;;9.55;35.13
78839;BME280;68405;47.190;27.558;2023-03-31T07:16:24;99008.39;;;9.62;35.06
78839;BME280;68405;47.190;27.558;2023-03-31T07:18:55;99005.14;;;9.72;34.95
78839;BME280;68405;47.190;27.558;2023-03-31T07:21:28;98999.05;;;10.07;35.14
78839;BME280;68405;47.190;27.558;2023-03-31T07:24:00;98997.95;;;10.50;34.96
78839;BME280;68405;47.190;27.558;2023-03-31T07:26:32;98994.83;;;10.82;34.43
78839;BME280;68405;47.190;27.558;2023-03-31T07:29:04;98996.46;;;10.91;33.95
78839;BME280;68405;47.190;27.558;2023-03-31T07:31:36;98995.74;;;11.02;33.87
78839;BME280;68405;47.190;27.558;2023-03-31T07:34:08;98991.20;;;10.91;33.66
78839;BME280;68405;47.190;27.558;2023-03-31T07:36:40;98994.16;;;10.81;34.11
78839;BME280;68405;47.190;27.558;2023-03-31T07:39:12;98995.36;;;10.88;33.97
78839;BME280;68405;47.190;27.558;2023-03-31T07:41:43;98991.92;;;10.84;33.97
78839;BME280;68405;47.190;27.558;2023-03-31T07:44:15;98992.64;;;10.98;33.72
78839;BME280;68405;47.190;27.558;2023-03-31T07:46:48;98989.77;;;10.99;33.39
78839;BME280;68405;47.190;27.558;2023-03-31T07:49:20;98989.35;;;11.01;33.70
78839;BME280;68405;47.190;27.558;2023-03-31T07:51:52;98988.75;;;10.99;33.46
78839;BME280;68405;47.190;27.558;2023-03-31T07:54:24;98991.59;;;10.94;33.29
78839;BME280;68405;47.190;27.558;2023-03-31T07:56:56;98987.70;;;10.86;33.78
78839;BME280;68405;47.190;27.558;2023-03-31T07:59:29;98987.24;;;10.84;33.69
78839;BME280;68405;47.190;27.558;2023-03-31T08:02:01;98986.67;;;10.81;33.93
78839;BME280;68405;47.190;27.558;2023-03-31T08:04:33;98989.94;;;10.86;33.98
78839;BME280;68405;47.190;27.558;2023-03-31T08:07:05;98989.30;;;10.88;33.99
78839;BME280;68405;47.190;27.558;2023-03-31T08:09:38;98987.34;;;10.86;33.88
78839;BME280;68405;47.190;27.558;2023-03-31T08:12:10;98985.83;;;10.74;33.77
78839;BME280;68405;47.190;27.558;2023-03-31T08:14:42;98983.88;;;10.71;33.59
78839;BME280;68405;47.190;27.558;2023-03-31T08:17:14;98982.89;;;10.67;33.69
78839;BME280;68405;47.190;27.558;2023-03-31T08:19:46;98986.71;;;10.70;33.78
78839;BME280;68405;47.190;27.558;2023-03-31T08:22:18;98979.83;;;10.73;33.74
78839;BME280;68405;47.190;27.558;2023-03-31T08:24:52;98982.13;;;10.79;33.77
78839;BME280;68405;47.190;27.558;2023-03-31T08:27:25;98979.70;;;10.75;33.96
78839;BME280;68405;47.190;27.558;2023-03-31T08:29:56;98980.97;;;10.67;33.77
78839;BME280;68405;47.190;27.558;2023-03-31T08:32:34;98977.52;;;10.63;33.86
78839;BME280;68405;47.190;27.558;2023-03-31T08:35:07;98978.91;;;10.74;33.75
78839;BME280;68405;47.190;27.558;2023-03-31T08:37:40;98976.19;;;10.83;33.68
78839;BME280;68405;47.190;27.558;2023-03-31T08:40:16;98970.83;;;10.93;33.69
78839;BME280;68405;47.190;27.558;2023-03-31T08:42:53;98964.84;;;11.12;33.73
78839;BME280;68405;47.190;27.558;2023-03-31T08:45:30;98963.39;;;11.30;33.32
78839;BME280;68405;47.190;27.558;2023-03-31T08:48:07;98961.84;;;11.43;33.31
78839;BME280;68405;47.190;27.558;2023-03-31T08:50:44;98957.69;;;11.62;33.51
78839;BME280;68405;47.190;27.558;2023-03-31T08:53:25;98960.28;;;11.85;33.22
78839;BME280;68405;47.190;27.558;2023-03-31T08:55:58;98958.45;;;12.03;32.94
78839;BME280;68405;47.190;27.558;2023-03-31T08:58:35;98958.35;;;12.11;32.71
78839;BME280;68405;47.190;27.558;2023-03-31T09:01:20;98957.23;;;12.19;32.44
78839;BME280;68405;47.190;27.558;2023-03-31T09:04:10;98956.44;;;12.23;32.70
78839;BME280;68405;47.190;27.558;2023-03-31T09:06:52;98953.14;;;12.26;32.67
78839;BME280;68405;47.190;27.558;2023-03-31T09:09:35;98951.69;;;12.31;33.08
78839;BME280;68405;47.190;27.558;2023-03-31T09:12:13;98952.14;;;12.32;32.80
78839;BME280;68405;47.190;27.558;2023-03-31T09:14:52;98949.46;;;12.24;32.41
78839;BME280;68405;47.190;27.558;2023-03-31T09:17:32;98950.23;;;12.20;32.93
78839;BME280;68405;47.190;27.558;2023-03-31T09:20:11;98950.02;;;12.30;33.07
78839;BME280;68405;47.190;27.558;2023-03-31T09:22:47;98949.68;;;12.41;33.14
78839;BME280;68405;47.190;27.558;2023-03-31T09:25:22;98946.77;;;12.56;33.30
78839;BME280;68405;47.190;27.558;2023-03-31T09:27:58;98946.73;;;12.75;33.42
78839;BME280;68405;47.190;27.558;2023-03-31T09:30:33;98946.05;;;12.98;33.48
78839;BME280;68405;47.190;27.558;2023-03-31T09:33:13;98946.39;;;13.36;33.23
78839;BME280;68405;47.190;27.558;2023-03-31T09:35:44;98936.26;;;13.80;33.27
78839;BME280;68405;47.190;27.558;2023-03-31T09:38:16;98937.28;;;14.18;33.01
78839;BME280;68405;47.190;27.558;2023-03-31T09:40:49;98931.77;;;14.55;32.04
78839;BME280;68405;47.190;27.558;2023-03-31T09:43:23;98928.88;;;14.83;31.74
78839;BME280;68405;47.190;27.558;2023-03-31T09:45:57;98925.00;;;15.20;31.57
78839;BME280;68405;47.190;27.558;2023-03-31T09:48:31;98925.88;;;15.50;31.66
78839;BME280;68405;47.190;27.558;2023-03-31T09:51:06;98925.25;;;15.76;31.83
78839;BME280;68405;47.190;27.558;2023-03-31T09:53:49;98928.05;;;16.03;31.94
78839;BME280;68405;47.190;27.558;2023-03-31T09:56:47;98928.81;;;16.20;31.80
78839;BME280;68405;47.190;27.558;2023-03-31T09:59:23;98929.20;;;16.24;31.92
78839;BME280;68405;47.190;27.558;2023-03-31T10:02:03;98931.32;;;16.12;31.64
78839;BME280;68405;47.190;27.558;2023-03-31T10:04:43;98931.95;;;16.01;31.65
78839;BME280;68405;47.190;27.558;2023-03-31T10:07:22;98928.76;;;15.79;31.89
78839;BME280;68405;47.190;27.558;2023-03-31T10:09:56;98928.63;;;15.71;32.41
78839;BME280;68405;47.190;27.558;2023-03-31T10:12:29;98927.34;;;15.72;32.94
78839;BME280;68405;47.190;27.558;2023-03-31T10:15:20;98926.61;;;15.59;33.22
78839;BME280;68405;47.190;27.558;2023-03-31T10:17:53;98931.42;;;15.43;33.40
78839;BME280;68405;47.190;27.558;2023-03-31T10:20:38;98933.68;;;15.23;33.75
78839;BME280;68405;47.190;27.558;2023-03-31T10:23:17;98931.42;;;15.13;34.27
78839;BME280;68405;47.190;27.558;2023-03-31T10:25:54;98934.05;;;15.13;34.66
78839;BME280;68405;47.190;27.558;2023-03-31T10:28:27;98932.11;;;15.18;35.03
78839;BME280;68405;47.190;27.558;2023-03-31T10:31:02;98933.04;;;15.12;35.19
78839;BME280;68405;47.190;27.558;2023-03-31T10:33:40;98931.50;;;15.01;35.67
78839;BME280;68405;47.190;27.558;2023-03-31T10:36:20;98931.74;;;14.98;36.21
78839;BME280;68405;47.190;27.558;2023-03-31T10:38:53;98934.02;;;15.05;36.59
78839;BME280;68405;47.190;27.558;2023-03-31T10:41:28;98930.08;;;15.12;36.98
78839;BME280;68405;47.190;27.558;2023-03-31T10:43:58;98925.79;;;15.26;37.27
78839;BME280;68405;47.190;27.558;2023-03-31T10:46:47;98925.54;;;15.35;38.44
78839;BME280;68405;47.190;27.558;2023-03-31T10:49:25;98924.98;;;15.35;39.55
78839;BME280;68405;47.190;27.558;2023-03-31T10:51:58;98925.11;;;15.31;40.11
78839;BME280;68405;47.190;27.558;2023-03-31T10:54:31;98923.16;;;15.21;41.41
78839;BME280;68405;47.190;27.558;2023-03-31T10:57:03;98926.11;;;15.09;40.85
78839;BME280;68405;47.190;27.558;2023-03-31T10:59:48;98924.81;;;15.07;41.27
78839;BME280;68405;47.190;27.558;2023-03-31T11:02:54;98920.91;;;15.00;42.18
78839;BME280;68405;47.190;27.558;2023-03-31T11:05:32;98915.95;;;14.91;42.22
78839;BME280;68405;47.190;27.558;2023-03-31T11:08:21;98919.41;;;14.86;42.45
78839;BME280;68405;47.190;27.558;2023-03-31T11:11:20;98913.48;;;14.89;42.51
78839;BME280;68405;47.190;27.558;2023-03-31T11:13:58;98916.00;;;14.80;42.94
78839;BME280;68405;47.190;27.558;2023-03-31T11:16:37;98913.26;;;14.68;43.00
78839;BME280;68405;47.190;27.558;2023-03-31T11:19:21;98916.67;;;14.58;43.08
78839;BME280;68405;47.190;27.558;2023-03-31T11:22:06;98914.40;;;14.45;43.91
78839;BME280;68405;47.190;27.558;2023-03-31T11:27:51;98916.40;;;14.20;44.49
78839;BME280;68405;47.190;27.558;2023-03-31T11:30:29;98915.67;;;14.01;45.03
78839;BME280;68405;47.190;27.558;2023-03-31T11:33:21;98918.25;;;13.88;45.67
78839;BME280;68405;47.190;27.558;2023-03-31T11:36:09;98918.96;;;13.83;45.85
78839;BME280;68405;47.190;27.558;2023-03-31T11:39:02;98915.77;;;13.92;46.69
78839;BME280;68405;47.190;27.558;2023-03-31T11:41:45;98911.55;;;14.00;47.00
78839;BME280;68405;47.190;27.558;2023-03-31T11:44:22;98909.70;;;13.99;47.83
78839;BME280;68405;47.190;27.558;2023-03-31T11:46:57;98912.20;;;13.96;47.51
78839;BME280;68405;47.190;27.558;2023-03-31T11:49:33;98910.86;;;13.97;47.43
78839;BME280;68405;47.190;27.558;2023-03-31T11:52:11;98909.17;;;13.97;47.87
78839;BME280;68405;47.190;27.558;2023-03-31T11:54:51;98909.23;;;13.87;48.08
78839;BME280;68405;47.190;27.558;2023-03-31T11:57:30;98911.45;;;13.80;48.24
78839;BME280;68405;47.190;27.558;2023-03-31T12:00:08;98907.83;;;13.65;49.26
78839;BME280;68405;47.190;27.558;2023-03-31T12:02:49;98905.80;;;13.53;48.82
78839;BME280;68405;47.190;27.558;2023-03-31T12:05:23;98904.24;;;13.50;49.00
78839;BME280;68405;47.190;27.558;2023-03-31T12:08:01;98903.02;;;13.47;49.46
78839;BME280;68405;47.190;27.558;2023-03-31T12:10:36;98902.05;;;13.40;48.98
78839;BME280;68405;47.190;27.558;2023-03-31T12:13:30;98899.66;;;13.39;49.67
78839;BME280;68405;47.190;27.558;2023-03-31T12:16:08;98895.73;;;13.41;49.48
78839;BME280;68405;47.190;27.558;2023-03-31T12:18:43;98894.40;;;13.48;49.77
78839;BME280;68405;47.190;27.558;2023-03-31T12:21:22;98894.89;;;13.57;49.88
78839;BME280;68405;47.190;27.558;2023-03-31T12:23:56;98895.98;;;13.62;49.66
78839;BME280;68405;47.190;27.558;2023-03-31T12:26:35;98896.04;;;13.61;49.48
78839;BME280;68405;47.190;27.558;2023-03-31T12:29:23;98892.02;;;13.67;49.30
78839;BME280;68405;47.190;27.558;2023-03-31T12:31:58;98889.34;;;13.79;49.32
78839;BME280;68405;47.190;27.558;2023-03-31T12:34:33;98887.66;;;13.83;49.68
78839;BME280;68405;47.190;27.558;2023-03-31T12:37:33;98884.65;;;13.81;49.24
78839;BME280;68405;47.190;27.558;2023-03-31T12:40:15;98879.92;;;13.90;49.38
78839;BME280;68405;47.190;27.558;2023-03-31T12:45:52;98880.23;;;13.93;49.34
78839;BME280;68405;47.190;27.558;2023-03-31T12:51:53;98882.42;;;13.67;49.85
78839;BME280;68405;47.190;27.558;2023-03-31T12:57:30;98878.05;;;13.45;50.03
78839;BME280;68405;47.190;27.558;2023-03-31T13:00:23;98878.36;;;13.43;50.67
78839;BME280;68405;47.190;27.558;2023-03-31T13:05:57;98872.12;;;13.50;50.97
78839;BME280;68405;47.190;27.558;2023-03-31T13:08:52;98868.04;;;13.51;50.53
78839;BME280;68405;47.190;27.558;2023-03-31T13:11:39;98872.08;;;13.56;51.05
78839;BME280;68405;47.190;27.558;2023-03-31T13:14:19;98869.44;;;13.57;51.26
78839;BME280;68405;47.190;27.558;2023-03-31T13:16:54;98868.31;;;13.52;51.23
78839;BME280;68405;47.190;27.558;2023-03-31T13:19:43;98866.94;;;13.47;50.90
78839;BME280;68405;47.190;27.558;2023-03-31T13:22:30;98862.99;;;13.46;51.22
78839;BME280;68405;47.190;27.558;2023-03-31T13:27:50;98856.34;;;13.29;51.85
78839;BME280;68405;47.190;27.558;2023-03-31T13:30:46;98855.29;;;13.17;52.07
78839;BME280;68405;47.190;27.558;2023-03-31T13:33:24;98844.90;;;13.11;52.24
78839;BME280;68405;47.190;27.558;2023-03-31T13:39:04;98840.06;;;13.07;52.56
78839;BME280;68405;47.190;27.558;2023-03-31T13:41:50;98836.44;;;13.03;53.36
78839;BME280;68405;47.190;27.558;2023-03-31T13:44:39;98831.94;;;12.92;53.02
78839;BME280;68405;47.190;27.558;2023-03-31T13:47:37;98831.45;;;12.88;53.17
78839;BME280;68405;47.190;27.558;2023-03-31T13:50:36;98829.28;;;12.89;53.22
78839;BME280;68405;47.190;27.558;2023-03-31T13:53:34;98830.98;;;12.93;53.11
78839;BME280;68405;47.190;27.558;2023-03-31T13:56:27;98826.92;;;13.02;53.69
78839;BME280;68405;47.190;27.558;2023-03-31T13:59:35;98826.83;;;13.07;53.38
78839;BME280;68405;47.190;27.558;2023-03-31T14:02:50;98825.09;;;13.06;53.48
78839;BME280;68405;47.190;27.558;2023-03-31T14:05:34;98823.94;;;13.11;54.02
78839;BME280;68405;47.190;27.558;2023-03-31T14:08:10;98820.91;;;13.15;53.84
78839;BME280;68405;47.190;27.558;2023-03-31T14:10:43;98820.39;;;13.29;54.04
78839;BME280;68405;47.190;27.558;2023-03-31T14:13:17;98822.21;;;13.42;53.96